Time;durP1;ratioP1;P1;durP2;ratioP2;P2;SDS_P1;SDS_P2;PMS_P1;PMS_P2;Temp;Humidity;BMP_temperature;BMP_pressure;BME280_temperature;BME280_humidity;BME280_pressure;Samples;Min_cycle;Max_cycle;Signal;HPM_P1;HPM_P2
2022/10/01 00:01:42;;;;;;;21.2;26.1;;;;;;;12.3;88.5;98590;;;;
2022/10/01 00:11:42;;;;;;;18.5;22.5;;;;;;;12.2;88.4;98580;;;;
2022/10/01 00:21:42;;;;;;;18.5;22.5;;;;;;;11.9;89.5;98570;;;;
2022/10/01 00:32:42;;;;;;;18.5;22.5;;;;;;;12.2;89.4;98560;;;;
2022/10/01 00:43:42;;;;;;;18.5;21.9;;;;;;;12.2;88.7;98560;;;;
2022/10/01 00:53:42;;;;;;;18.5;21.9;;;;;;;12.1;88.2;98560;;;;
2022/10/01 01:04:43;;;;;;;18.5;21.9;;;;;;;12.1;88;98550;;;;
2022/10/01 01:14:42;;;;;;;14.5;20;;;;;;;12;87.9;98550;;;;
2022/10/01 01:25:42;;;;;;;14.5;20;;;;;;;12;87.9;98560;;;;
2022/10/01 01:35:42;;;;;;;14.5;20;;;;;;;12.1;87.9;98570;;;;
2022/10/01 01:46:42;;;;;;;15.8;19.7;;;;;;;12.1;88;98580;;;;
2022/10/01 01:57:42;;;;;;;15.8;19.7;;;;;;;12;88.5;98580;;;;
2022/10/01 02:08:42;;;;;;;14.6;18.5;;;;;;;12;88.7;98570;;;;
2022/10/01 02:19:43;;;;;;;14.6;18.5;;;;;;;11.9;88.5;98570;;;;
2022/10/01 02:30:43;;;;;;;14.6;18.5;;;;;;;12;88.1;98580;;;;
2022/10/01 02:41:42;;;;;;;15.4;17.6;;;;;;;11.9;87.8;98590;;;;
2022/10/01 02:52:42;;;;;;;15.4;17.6;;;;;;;11.9;87.7;98600;;;;
2022/10/01 03:02:42;;;;;;;15.4;17.6;;;;;;;11.9;87.8;98600;;;;
2022/10/01 03:13:42;;;;;;;15.7;19.4;;;;;;;11.8;87.8;98600;;;;
2022/10/01 03:24:42;;;;;;;15.7;19.4;;;;;;;11.7;87.8;98600;;;;
2022/10/01 03:34:42;;;;;;;15.7;19.4;;;;;;;11.6;88.8;98600;;;;
2022/10/01 03:45:42;;;;;;;15.8;19.7;;;;;;;11.8;89.1;98610;;;;
2022/10/01 03:55:42;;;;;;;15.8;19.7;;;;;;;12;88.8;98600;;;;
2022/10/01 04:06:42;;;;;;;15.8;19.7;;;;;;;12;88.7;98580;;;;
2022/10/01 04:16:43;;;;;;;15.4;21.2;;;;;;;12;88.8;98570;;;;
2022/10/01 04:27:43;;;;;;;15.4;21.2;;;;;;;12.1;88.9;98560;;;;
2022/10/01 04:38:42;;;;;;;16;20.2;;;;;;;12.1;88.8;98570;;;;
2022/10/01 04:48:42;;;;;;;16;20.2;;;;;;;12.2;89.1;98570;;;;
2022/10/01 04:58:42;;;;;;;16;20.2;;;;;;;12.2;88.9;98560;;;;
2022/10/01 05:09:42;;;;;;;21.9;27.7;;;;;;;12.3;88.9;98560;;;;
2022/10/01 05:20:42;;;;;;;21.9;27.7;;;;;;;12.5;88.4;98570;;;;
2022/10/01 05:30:42;;;;;;;21.9;27.7;;;;;;;12.4;88.4;98570;;;;
2022/10/01 05:41:42;;;;;;;23.2;27.6;;;;;;;12.4;89.2;98570;;;;
2022/10/01 05:52:42;;;;;;;23.2;27.6;;;;;;;12.6;89.1;98580;;;;
2022/10/01 06:03:43;;;;;;;23.2;27.6;;;;;;;12.6;88.7;98570;;;;
2022/10/01 06:13:45;;;;;;;25.9;33.6;;;;;;;12.9;88.6;98570;;;;
2022/10/01 06:23:43;;;;;;;25.9;33.6;;;;;;;13;88.4;98570;;;;
2022/10/01 06:33:42;;;;;;;25.9;33.6;;;;;;;13;88.1;98550;;;;
2022/10/01 06:44:43;;;;;;;27.8;32.7;;;;;;;13.5;88.3;98550;;;;
2022/10/01 06:55:42;;;;;;;27.8;32.7;;;;;;;13.7;87.9;98550;;;;
2022/10/01 07:05:43;;;;;;;27.8;32.7;;;;;;;13.9;87.5;98540;;;;
2022/10/01 07:15:43;;;;;;;24.2;30.3;;;;;;;14;86.1;98540;;;;
2022/10/01 07:25:43;;;;;;;24.2;30.3;;;;;;;14.2;86.4;98530;;;;
2022/10/01 07:36:44;;;;;;;24.2;30.3;;;;;;;14.4;85.8;98520;;;;
2022/10/01 07:47:43;;;;;;;22.3;24.8;;;;;;;14.5;85.8;98520;;;;
2022/10/01 07:58:43;;;;;;;22.3;24.8;;;;;;;14.6;84.9;98510;;;;
2022/10/01 08:08:43;;;;;;;18.6;22.8;;;;;;;14.5;84.3;98500;;;;
2022/10/01 08:19:43;;;;;;;18.6;22.8;;;;;;;14.5;84.7;98500;;;;
2022/10/01 08:29:43;;;;;;;18.6;22.8;;;;;;;14.7;85.1;98500;;;;
2022/10/01 08:40:43;;;;;;;17.3;22.4;;;;;;;14.8;84.1;98490;;;;
2022/10/01 08:50:43;;;;;;;17.3;22.4;;;;;;;15.1;83.2;98470;;;;
2022/10/01 09:01:43;;;;;;;17.3;22.4;;;;;;;15;83.3;98470;;;;
2022/10/01 09:11:43;;;;;;;15.6;19.5;;;;;;;15.2;83.5;98460;;;;
2022/10/01 09:21:43;;;;;;;15.6;19.5;;;;;;;15.3;83.7;98450;;;;
2022/10/01 09:32:43;;;;;;;15.6;19.5;;;;;;;15.3;83.2;98450;;;;
2022/10/01 09:43:43;;;;;;;17.9;24.1;;;;;;;15.5;82.7;98430;;;;
2022/10/01 09:53:43;;;;;;;17.9;24.1;;;;;;;15.9;82.3;98430;;;;
2022/10/01 10:04:43;;;;;;;17.9;24.1;;;;;;;16.2;81.5;98420;;;;
2022/10/01 10:14:43;;;;;;;16.9;21.9;;;;;;;16.2;81.7;98410;;;;
2022/10/01 10:24:43;;;;;;;16.9;21.9;;;;;;;16;81.5;98410;;;;
2022/10/01 10:35:43;;;;;;;16.9;21.9;;;;;;;16.2;81.9;98390;;;;
2022/10/01 10:46:44;;;;;;;16.5;21.2;;;;;;;16;81.6;98370;;;;
2022/10/01 10:56:43;;;;;;;16.5;21.2;;;;;;;16.1;82;98350;;;;
2022/10/01 11:07:43;;;;;;;17.8;24.9;;;;;;;16.4;81.3;98320;;;;
2022/10/01 11:17:43;;;;;;;17.8;24.9;;;;;;;16.6;80.6;98310;;;;
2022/10/01 11:27:43;;;;;;;17.8;24.9;;;;;;;16.6;80.3;98300;;;;
2022/10/01 11:37:43;;;;;;;16.4;22.1;;;;;;;16.8;81;98270;;;;
2022/10/01 11:48:43;;;;;;;16.4;22.1;;;;;;;17.2;80.5;98270;;;;
2022/10/01 11:58:50;;;;;;;16.4;22.1;;;;;;;17.3;79.7;98250;;;;
2022/10/01 12:09:43;;;;;;;15.4;19.3;;;;;;;17.4;79.6;98230;;;;
2022/10/01 12:20:43;;;;;;;15.4;19.3;;;;;;;17.2;79.6;98220;;;;
2022/10/01 12:31:43;;;;;;;15.4;19.3;;;;;;;17.5;80.1;98210;;;;
2022/10/01 12:42:43;;;;;;;15.3;17.7;;;;;;;17.3;80.5;98190;;;;
2022/10/01 12:52:43;;;;;;;15.3;17.7;;;;;;;17.3;80.4;98180;;;;
2022/10/01 13:03:43;;;;;;;15.3;17.7;;;;;;;17.3;80.7;98170;;;;
2022/10/01 13:13:43;;;;;;;14.4;17.7;;;;;;;17.4;81.9;98150;;;;
2022/10/01 13:24:43;;;;;;;14.4;17.7;;;;;;;17.6;80.9;98140;;;;
2022/10/01 13:34:44;;;;;;;14.4;17.7;;;;;;;17.3;81.4;98140;;;;
2022/10/01 13:45:43;;;;;;;14.9;17.9;;;;;;;17.2;82;98130;;;;
2022/10/01 13:56:43;;;;;;;14.9;17.9;;;;;;;17;82;98120;;;;
2022/10/01 14:06:43;;;;;;;14.9;17.9;;;;;;;16.9;82.7;98110;;;;
2022/10/01 14:17:43;;;;;;;15.1;19.6;;;;;;;16.8;82.9;98100;;;;
2022/10/01 14:27:43;;;;;;;15.1;19.6;;;;;;;16.6;83.6;98090;;;;
2022/10/01 14:38:43;;;;;;;17.1;21.8;;;;;;;16.6;83.9;98080;;;;
2022/10/01 14:48:43;;;;;;;17.1;21.8;;;;;;;16.6;83.8;98070;;;;
2022/10/01 14:59:43;;;;;;;17.1;21.8;;;;;;;16.4;84.1;98070;;;;
2022/10/01 15:09:43;;;;;;;14.9;16.5;;;;;;;16.2;84.5;98060;;;;
2022/10/01 15:20:43;;;;;;;14.9;16.5;;;;;;;16;84.8;98050;;;;
2022/10/01 15:31:43;;;;;;;14.9;16.5;;;;;;;15.5;86.8;98070;;;;
2022/10/01 15:42:43;;;;;;;32;38.6;;;;;;;15.3;86.4;98070;;;;
2022/10/01 15:52:50;;;;;;;32;38.6;;;;;;;15.2;86.3;98050;;;;
2022/10/01 16:02:43;;;;;;;32;38.6;;;;;;;15.1;86.4;98050;;;;
2022/10/01 16:13:43;;;;;;;25.9;32.4;;;;;;;14.9;86.7;98040;;;;
2022/10/01 16:23:43;;;;;;;25.9;32.4;;;;;;;14.8;87;98040;;;;
2022/10/01 16:34:43;;;;;;;25.9;32.4;;;;;;;14.5;87.6;98050;;;;
2022/10/01 16:44:43;;;;;;;25.8;30.6;;;;;;;14.3;88.1;98050;;;;
2022/10/01 16:55:43;;;;;;;25.8;30.6;;;;;;;14.2;88.7;98040;;;;
2022/10/01 17:05:43;;;;;;;25.8;30.6;;;;;;;14.1;88.7;98030;;;;
2022/10/01 17:15:43;;;;;;;26.1;31.3;;;;;;;14;88.9;98020;;;;
2022/10/01 17:26:44;;;;;;;26.1;31.3;;;;;;;13.9;88.6;98010;;;;
2022/10/01 17:36:44;;;;;;;23.1;26.6;;;;;;;13.9;88.5;98000;;;;
2022/10/01 17:47:43;;;;;;;23.1;26.6;;;;;;;13.8;88.3;97990;;;;
2022/10/01 17:58:43;;;;;;;23.1;26.6;;;;;;;13.9;87.8;97990;;;;
2022/10/01 18:08:43;;;;;;;23;29;;;;;;;13.6;88.7;97980;;;;
2022/10/01 18:18:43;;;;;;;23;29;;;;;;;13.5;88.4;97980;;;;
2022/10/01 18:29:43;;;;;;;23;29;;;;;;;13.4;86.2;97990;;;;
2022/10/01 18:39:43;;;;;;;13.1;18.6;;;;;;;13.4;85.6;97990;;;;
2022/10/01 18:49:43;;;;;;;13.1;18.6;;;;;;;13.4;85.3;97990;;;;
2022/10/01 19:00:43;;;;;;;13.1;18.6;;;;;;;13.4;84.7;98010;;;;
2022/10/01 19:10:43;;;;;;;7.1;11.2;;;;;;;13.4;83.7;98060;;;;
2022/10/01 19:21:43;;;;;;;7.1;11.2;;;;;;;12.8;80.7;98080;;;;
2022/10/01 19:32:43;;;;;;;7.1;11.2;;;;;;;12.4;81.8;98090;;;;
2022/10/01 19:42:43;;;;;;;4;7.6;;;;;;;12.1;83.4;98110;;;;
2022/10/01 19:52:47;;;;;;;4;7.6;;;;;;;11.9;84.7;98120;;;;
2022/10/01 20:03:43;;;;;;;4;7.6;;;;;;;11.8;86.3;98120;;;;
2022/10/01 20:13:43;;;;;;;3.1;5.6;;;;;;;11.6;87.1;98140;;;;
2022/10/01 20:23:43;;;;;;;3.1;5.6;;;;;;;11.5;87.5;98150;;;;
2022/10/01 20:34:43;;;;;;;3.1;5.6;;;;;;;11.3;87.9;98150;;;;
2022/10/01 20:45:43;;;;;;;2.9;5.6;;;;;;;11.3;88.1;98150;;;;
2022/10/01 20:56:43;;;;;;;2.9;5.6;;;;;;;11.3;88.1;98160;;;;
2022/10/01 21:07:43;;;;;;;5.1;7.5;;;;;;;11.2;88.5;98160;;;;
2022/10/01 21:18:43;;;;;;;5.1;7.5;;;;;;;11.3;88.5;98160;;;;
2022/10/01 21:28:43;;;;;;;5.1;7.5;;;;;;;11.2;88.1;98160;;;;
2022/10/01 21:39:43;;;;;;;6.5;9.4;;;;;;;11.1;88;98160;;;;
2022/10/01 21:50:43;;;;;;;6.5;9.4;;;;;;;11.1;87.9;98180;;;;
2022/10/01 22:00:43;;;;;;;6.5;9.4;;;;;;;11.2;87.5;98180;;;;
2022/10/01 22:10:43;;;;;;;5.4;8.9;;;;;;;11.2;87.2;98190;;;;
2022/10/01 22:21:43;;;;;;;5.4;8.9;;;;;;;11.1;86.9;98190;;;;
2022/10/01 22:31:43;;;;;;;5.4;8.9;;;;;;;11;86.9;98190;;;;
2022/10/01 22:42:43;;;;;;;4.4;6.2;;;;;;;11;86.7;98190;;;;
2022/10/01 22:53:43;;;;;;;4.4;6.2;;;;;;;11.1;86.3;98200;;;;
2022/10/01 23:03:43;;;;;;;4.4;6.2;;;;;;;11.1;86.1;98200;;;;
2022/10/01 23:13:43;;;;;;;2.7;4.7;;;;;;;11.3;86.2;98210;;;;
2022/10/01 23:24:43;;;;;;;2.7;4.7;;;;;;;11.5;85.9;98210;;;;
2022/10/01 23:35:43;;;;;;;2.7;4.7;;;;;;;11.5;85.5;98220;;;;
2022/10/01 23:45:43;;;;;;;2.6;5.4;;;;;;;11.5;85.9;98230;;;;
2022/10/01 23:56:50;;;;;;;2.6;5.4;;;;;;;11.3;86.5;98230;;;;
